sensor_id;sensor_type;location;lat;lon;timestamp;temperature;humidity
30648;DHT22;17683;53.360;9.736;2022-09-20T00:00:50;8.30;99.90
30648;DHT22;17683;53.360;9.736;2022-09-20T00:03:16;8.20;99.90
30648;DHT22;17683;53.360;9.736;2022-09-20T00:05:43;8.20;99.90
30648;DHT22;17683;53.360;9.736;2022-09-20T00:08:13;8.20;99.90
30648;DHT22;17683;53.360;9.736;2022-09-20T00:10:39;8.10;99.90
30648;DHT22;17683;53.360;9.736;2022-09-20T00:13:07;8.20;99.90
30648;DHT22;17683;53.360;9.736;2022-09-20T00:15:34;8.10;99.90
30648;DHT22;17683;53.360;9.736;2022-09-20T00:18:04;8.10;99.90
30648;DHT22;17683;53.360;9.736;2022-09-20T00:20:30;8.10;99.90
30648;DHT22;17683;53.360;9.736;2022-09-20T00:22:55;8.10;99.90
30648;DHT22;17683;53.360;9.736;2022-09-20T00:25:21;8.10;99.90
30648;DHT22;17683;53.360;9.736;2022-09-20T00:27:47;8.00;99.90
30648;DHT22;17683;53.360;9.736;2022-09-20T00:30:13;8.00;99.90
30648;DHT22;17683;53.360;9.736;2022-09-20T00:32:40;8.00;99.90
30648;DHT22;17683;53.360;9.736;2022-09-20T00:35:06;8.00;99.90
30648;DHT22;17683;53.360;9.736;2022-09-20T00:37:42;7.90;99.90
30648;DHT22;17683;53.360;9.736;2022-09-20T00:40:12;7.90;99.90
30648;DHT22;17683;53.360;9.736;2022-09-20T00:42:38;7.80;99.90
30648;DHT22;17683;53.360;9.736;2022-09-20T00:45:06;7.80;99.90
30648;DHT22;17683;53.360;9.736;2022-09-20T00:47:46;7.80;99.90
30648;DHT22;17683;53.360;9.736;2022-09-20T00:50:38;7.90;99.90
30648;DHT22;17683;53.360;9.736;2022-09-20T00:53:42;7.80;99.90
30648;DHT22;17683;53.360;9.736;2022-09-20T00:56:19;7.80;99.90
30648;DHT22;17683;53.360;9.736;2022-09-20T00:58:57;7.70;99.90
30648;DHT22;17683;53.360;9.736;2022-09-20T01:01:25;7.60;99.90
30648;DHT22;17683;53.360;9.736;2022-09-20T01:03:50;7.60;99.90
30648;DHT22;17683;53.360;9.736;2022-09-20T01:06:17;7.60;99.90
30648;DHT22;17683;53.360;9.736;2022-09-20T01:08:46;7.70;99.90
30648;DHT22;17683;53.360;9.736;2022-09-20T01:11:13;7.60;99.90
30648;DHT22;17683;53.360;9.736;2022-09-20T01:13:39;7.60;99.90
30648;DHT22;17683;53.360;9.736;2022-09-20T01:16:05;7.60;99.90
30648;DHT22;17683;53.360;9.736;2022-09-20T01:18:33;7.50;99.90
30648;DHT22;17683;53.360;9.736;2022-09-20T01:21:01;7.50;99.90
30648;DHT22;17683;53.360;9.736;2022-09-20T01:32:02;7.40;99.90
30648;DHT22;17683;53.360;9.736;2022-09-20T01:34:34;7.40;99.90
30648;DHT22;17683;53.360;9.736;2022-09-20T01:37:21;7.40;99.90
30648;DHT22;17683;53.360;9.736;2022-09-20T01:40:10;7.40;99.90
30648;DHT22;17683;53.360;9.736;2022-09-20T01:42:44;7.30;99.90
30648;DHT22;17683;53.360;9.736;2022-09-20T01:47:54;7.30;99.90
30648;DHT22;17683;53.360;9.736;2022-09-20T01:50:33;7.40;99.90
30648;DHT22;17683;53.360;9.736;2022-09-20T01:59:29;7.20;99.90
30648;DHT22;17683;53.360;9.736;2022-09-20T02:02:09;7.20;99.90
30648;DHT22;17683;53.360;9.736;2022-09-20T02:13:09;7.10;99.90
30648;DHT22;17683;53.360;9.736;2022-09-20T02:21:14;7.00;99.90
30648;DHT22;17683;53.360;9.736;2022-09-20T02:23:55;7.00;99.90
30648;DHT22;17683;53.360;9.736;2022-09-20T02:26:42;7.10;99.90
30648;DHT22;17683;53.360;9.736;2022-09-20T02:43:36;7.20;99.90
30648;DHT22;17683;53.360;9.736;2022-09-20T02:46:12;7.20;99.90
30648;DHT22;17683;53.360;9.736;2022-09-20T02:48:46;7.20;99.90
30648;DHT22;17683;53.360;9.736;2022-09-20T02:51:20;7.20;99.90
30648;DHT22;17683;53.360;9.736;2022-09-20T02:56:41;7.10;99.90
30648;DHT22;17683;53.360;9.736;2022-09-20T03:02:26;7.10;99.90
30648;DHT22;17683;53.360;9.736;2022-09-20T03:05:23;7.20;99.90
30648;DHT22;17683;53.360;9.736;2022-09-20T03:10:26;7.10;99.90
30648;DHT22;17683;53.360;9.736;2022-09-20T03:16:13;7.00;99.90
30648;DHT22;17683;53.360;9.736;2022-09-20T03:19:12;7.00;99.90
30648;DHT22;17683;53.360;9.736;2022-09-20T03:27:41;7.00;99.90
30648;DHT22;17683;53.360;9.736;2022-09-20T03:35:29;6.90;99.90
30648;DHT22;17683;53.360;9.736;2022-09-20T03:49:15;6.90;99.90
30648;DHT22;17683;53.360;9.736;2022-09-20T03:51:59;6.90;99.90
30648;DHT22;17683;53.360;9.736;2022-09-20T04:03:19;6.60;99.90
30648;DHT22;17683;53.360;9.736;2022-09-20T04:05:58;6.60;99.90
30648;DHT22;17683;53.360;9.736;2022-09-20T04:13:33;6.50;99.90
30648;DHT22;17683;53.360;9.736;2022-09-20T04:21:57;6.50;99.90
30648;DHT22;17683;53.360;9.736;2022-09-20T04:27:27;6.60;99.90
30648;DHT22;17683;53.360;9.736;2022-09-20T04:30:01;6.50;99.90
30648;DHT22;17683;53.360;9.736;2022-09-20T04:38:20;6.30;99.90
30648;DHT22;17683;53.360;9.736;2022-09-20T05:00:20;6.40;99.90
30648;DHT22;17683;53.360;9.736;2022-09-20T05:15:07;6.30;99.90
30648;DHT22;17683;53.360;9.736;2022-09-20T05:26:12;6.30;99.90
30648;DHT22;17683;53.360;9.736;2022-09-20T05:29:01;6.30;99.90
30648;DHT22;17683;53.360;9.736;2022-09-20T05:42:14;6.30;99.90
30648;DHT22;17683;53.360;9.736;2022-09-20T05:45:08;6.30;99.90
30648;DHT22;17683;53.360;9.736;2022-09-20T05:47:56;6.40;99.90
30648;DHT22;17683;53.360;9.736;2022-09-20T05:53:49;6.40;99.90
30648;DHT22;17683;53.360;9.736;2022-09-20T06:02:06;6.40;99.90
30648;DHT22;17683;53.360;9.736;2022-09-20T06:04:44;6.40;99.90
30648;DHT22;17683;53.360;9.736;2022-09-20T06:10:29;6.50;99.90
30648;DHT22;17683;53.360;9.736;2022-09-20T06:18:46;6.60;99.90
30648;DHT22;17683;53.360;9.736;2022-09-20T06:27:01;6.80;99.90
30648;DHT22;17683;53.360;9.736;2022-09-20T06:29:31;6.90;99.90
30648;DHT22;17683;53.360;9.736;2022-09-20T06:31:57;7.00;99.90
30648;DHT22;17683;53.360;9.736;2022-09-20T06:34:23;7.10;99.90
30648;DHT22;17683;53.360;9.736;2022-09-20T06:42:57;7.50;99.90
30648;DHT22;17683;53.360;9.736;2022-09-20T06:45:24;7.60;99.90
30648;DHT22;17683;53.360;9.736;2022-09-20T06:47:50;7.70;99.90
30648;DHT22;17683;53.360;9.736;2022-09-20T06:50:16;7.70;99.90
30648;DHT22;17683;53.360;9.736;2022-09-20T06:52:42;7.80;99.90
30648;DHT22;17683;53.360;9.736;2022-09-20T06:55:17;7.90;99.90
30648;DHT22;17683;53.360;9.736;2022-09-20T06:57:45;7.90;99.90
30648;DHT22;17683;53.360;9.736;2022-09-20T07:00:13;8.00;99.90
30648;DHT22;17683;53.360;9.736;2022-09-20T07:02:41;8.10;99.90
30648;DHT22;17683;53.360;9.736;2022-09-20T07:05:13;8.20;99.90
30648;DHT22;17683;53.360;9.736;2022-09-20T07:07:39;8.30;99.90
30648;DHT22;17683;53.360;9.736;2022-09-20T07:10:05;8.40;99.90
30648;DHT22;17683;53.360;9.736;2022-09-20T07:12:31;8.50;99.90
30648;DHT22;17683;53.360;9.736;2022-09-20T07:14:59;8.70;99.90
30648;DHT22;17683;53.360;9.736;2022-09-20T07:17:25;8.80;99.90
30648;DHT22;17683;53.360;9.736;2022-09-20T07:19:50;9.00;99.90
30648;DHT22;17683;53.360;9.736;2022-09-20T07:22:16;9.10;99.90
30648;DHT22;17683;53.360;9.736;2022-09-20T07:24:42;9.30;99.90
30648;DHT22;17683;53.360;9.736;2022-09-20T07:27:09;9.40;99.90
30648;DHT22;17683;53.360;9.736;2022-09-20T07:29:36;9.60;99.90
30648;DHT22;17683;53.360;9.736;2022-09-20T07:32:02;9.70;99.90
30648;DHT22;17683;53.360;9.736;2022-09-20T07:34:28;9.90;99.90
30648;DHT22;17683;53.360;9.736;2022-09-20T07:36:54;10.00;99.90
30648;DHT22;17683;53.360;9.736;2022-09-20T07:39:24;10.20;99.90
30648;DHT22;17683;53.360;9.736;2022-09-20T07:41:50;10.30;99.90
30648;DHT22;17683;53.360;9.736;2022-09-20T07:44:16;10.50;99.90
30648;DHT22;17683;53.360;9.736;2022-09-20T07:46:54;10.60;99.90
30648;DHT22;17683;53.360;9.736;2022-09-20T07:49:22;10.70;99.90
30648;DHT22;17683;53.360;9.736;2022-09-20T07:51:49;10.80;99.90
30648;DHT22;17683;53.360;9.736;2022-09-20T07:54:15;11.00;99.90
30648;DHT22;17683;53.360;9.736;2022-09-20T07:56:41;11.10;99.90
30648;DHT22;17683;53.360;9.736;2022-09-20T07:59:07;11.30;99.90
30648;DHT22;17683;53.360;9.736;2022-09-20T08:01:35;11.40;99.90
30648;DHT22;17683;53.360;9.736;2022-09-20T08:04:01;11.50;99.90
30648;DHT22;17683;53.360;9.736;2022-09-20T08:06:29;11.60;99.90
30648;DHT22;17683;53.360;9.736;2022-09-20T08:08:55;11.70;99.90
30648;DHT22;17683;53.360;9.736;2022-09-20T08:11:22;11.90;99.90
30648;DHT22;17683;53.360;9.736;2022-09-20T08:13:55;12.00;99.90
30648;DHT22;17683;53.360;9.736;2022-09-20T08:16:21;12.00;99.90
30648;DHT22;17683;53.360;9.736;2022-09-20T08:18:49;12.10;99.90
30648;DHT22;17683;53.360;9.736;2022-09-20T08:21:16;12.30;99.90
30648;DHT22;17683;53.360;9.736;2022-09-20T08:23:44;12.30;99.90
30648;DHT22;17683;53.360;9.736;2022-09-20T08:26:12;12.40;99.90
30648;DHT22;17683;53.360;9.736;2022-09-20T08:28:39;12.50;99.90
30648;DHT22;17683;53.360;9.736;2022-09-20T08:31:11;12.50;99.90
30648;DHT22;17683;53.360;9.736;2022-09-20T08:33:38;12.70;99.90
30648;DHT22;17683;53.360;9.736;2022-09-20T08:36:05;12.70;99.90
30648;DHT22;17683;53.360;9.736;2022-09-20T08:38:32;12.80;99.90
30648;DHT22;17683;53.360;9.736;2022-09-20T08:41:03;12.90;99.90
30648;DHT22;17683;53.360;9.736;2022-09-20T08:43:37;13.00;99.90
30648;DHT22;17683;53.360;9.736;2022-09-20T08:46:05;13.00;99.90
30648;DHT22;17683;53.360;9.736;2022-09-20T08:48:33;13.20;99.90
30648;DHT22;17683;53.360;9.736;2022-09-20T08:51:01;13.30;99.90
30648;DHT22;17683;53.360;9.736;2022-09-20T08:53:27;13.50;99.90
30648;DHT22;17683;53.360;9.736;2022-09-20T08:55:55;13.50;99.90
30648;DHT22;17683;53.360;9.736;2022-09-20T08:58:25;13.70;99.90
30648;DHT22;17683;53.360;9.736;2022-09-20T09:00:52;13.80;99.90
30648;DHT22;17683;53.360;9.736;2022-09-20T09:03:19;13.80;99.90
30648;DHT22;17683;53.360;9.736;2022-09-20T09:05:55;13.90;99.90
30648;DHT22;17683;53.360;9.736;2022-09-20T09:08:36;14.00;99.90
30648;DHT22;17683;53.360;9.736;2022-09-20T09:11:13;14.10;99.90
30648;DHT22;17683;53.360;9.736;2022-09-20T09:14:10;14.00;99.90
30648;DHT22;17683;53.360;9.736;2022-09-20T09:16:54;13.90;99.90
30648;DHT22;17683;53.360;9.736;2022-09-20T09:19:31;13.80;99.90
30648;DHT22;17683;53.360;9.736;2022-09-20T09:22:01;13.80;99.90
30648;DHT22;17683;53.360;9.736;2022-09-20T09:24:28;13.90;99.90
30648;DHT22;17683;53.360;9.736;2022-09-20T09:27:14;14.00;99.90
30648;DHT22;17683;53.360;9.736;2022-09-20T09:29:54;14.10;99.90
30648;DHT22;17683;53.360;9.736;2022-09-20T09:32:28;14.20;99.90
30648;DHT22;17683;53.360;9.736;2022-09-20T09:34:56;14.30;99.90
30648;DHT22;17683;53.360;9.736;2022-09-20T09:37:52;14.30;99.90
30648;DHT22;17683;53.360;9.736;2022-09-20T09:40:18;14.20;99.90
30648;DHT22;17683;53.360;9.736;2022-09-20T09:42:49;14.20;99.90
30648;DHT22;17683;53.360;9.736;2022-09-20T09:45:31;14.30;99.90
30648;DHT22;17683;53.360;9.736;2022-09-20T09:48:00;14.40;99.90
30648;DHT22;17683;53.360;9.736;2022-09-20T09:50:32;14.50;99.90
30648;DHT22;17683;53.360;9.736;2022-09-20T09:53:10;14.70;99.90
30648;DHT22;17683;53.360;9.736;2022-09-20T09:58:44;14.90;99.90
30648;DHT22;17683;53.360;9.736;2022-09-20T10:04:44;14.80;99.90
30648;DHT22;17683;53.360;9.736;2022-09-20T10:12:59;15.30;99.90
30648;DHT22;17683;53.360;9.736;2022-09-20T10:29:39;15.00;99.90
30648;DHT22;17683;53.360;9.736;2022-09-20T10:40:28;15.50;99.90
30648;DHT22;17683;53.360;9.736;2022-09-20T10:44:08;15.60;99.90
30648;DHT22;17683;53.360;9.736;2022-09-20T10:54:46;15.50;99.90
30648;DHT22;17683;53.360;9.736;2022-09-20T10:57:27;15.50;99.90
30648;DHT22;17683;53.360;9.736;2022-09-20T11:03:12;15.40;99.90
30648;DHT22;17683;53.360;9.736;2022-09-20T11:08:36;15.20;99.90
30648;DHT22;17683;53.360;9.736;2022-09-20T11:11:09;15.20;99.90
30648;DHT22;17683;53.360;9.736;2022-09-20T11:13:45;15.30;99.90
30648;DHT22;17683;53.360;9.736;2022-09-20T11:22:21;15.30;99.90
30648;DHT22;17683;53.360;9.736;2022-09-20T11:27:56;15.50;99.90
30648;DHT22;17683;53.360;9.736;2022-09-20T11:30:23;15.60;99.90
30648;DHT22;17683;53.360;9.736;2022-09-20T11:32:53;15.70;99.90
30648;DHT22;17683;53.360;9.736;2022-09-20T11:35:50;15.60;99.90
30648;DHT22;17683;53.360;9.736;2022-09-20T11:41:16;15.50;99.90
30648;DHT22;17683;53.360;9.736;2022-09-20T11:43:45;15.40;99.90
30648;DHT22;17683;53.360;9.736;2022-09-20T11:46:39;15.30;99.90
30648;DHT22;17683;53.360;9.736;2022-09-20T11:52:48;15.20;99.90
30648;DHT22;17683;53.360;9.736;2022-09-20T11:58:14;15.10;99.90
30648;DHT22;17683;53.360;9.736;2022-09-20T12:00:44;15.20;99.90
30648;DHT22;17683;53.360;9.736;2022-09-20T12:03:33;15.30;99.90
30648;DHT22;17683;53.360;9.736;2022-09-20T12:06:04;15.20;99.90
30648;DHT22;17683;53.360;9.736;2022-09-20T12:08:40;15.20;99.90
30648;DHT22;17683;53.360;9.736;2022-09-20T12:11:11;15.30;99.90
30648;DHT22;17683;53.360;9.736;2022-09-20T12:13:40;15.30;99.90
30648;DHT22;17683;53.360;9.736;2022-09-20T12:16:11;15.40;99.90
30648;DHT22;17683;53.360;9.736;2022-09-20T12:18:48;15.40;99.90
30648;DHT22;17683;53.360;9.736;2022-09-20T12:21:25;15.50;99.90
30648;DHT22;17683;53.360;9.736;2022-09-20T12:28:49;15.80;99.90
30648;DHT22;17683;53.360;9.736;2022-09-20T12:36:39;16.10;99.90
30648;DHT22;17683;53.360;9.736;2022-09-20T12:42:00;16.30;99.90
30648;DHT22;17683;53.360;9.736;2022-09-20T12:44:59;16.40;99.90
30648;DHT22;17683;53.360;9.736;2022-09-20T12:47:29;16.30;99.50
30648;DHT22;17683;53.360;9.736;2022-09-20T12:49:57;16.30;99.90
30648;DHT22;17683;53.360;9.736;2022-09-20T12:58:24;16.30;98.90
30648;DHT22;17683;53.360;9.736;2022-09-20T13:03:47;16.20;98.60
30648;DHT22;17683;53.360;9.736;2022-09-20T13:11:57;16.10;98.60
30648;DHT22;17683;53.360;9.736;2022-09-20T13:14:28;16.10;98.60
30648;DHT22;17683;53.360;9.736;2022-09-20T13:19:29;16.10;98.70
30648;DHT22;17683;53.360;9.736;2022-09-20T13:24:32;16.10;98.20
30648;DHT22;17683;53.360;9.736;2022-09-20T13:27:05;16.20;98.50
30648;DHT22;17683;53.360;9.736;2022-09-20T13:29:33;16.20;99.50
30648;DHT22;17683;53.360;9.736;2022-09-20T13:32:21;16.30;99.60
30648;DHT22;17683;53.360;9.736;2022-09-20T13:35:09;16.40;97.50
30648;DHT22;17683;53.360;9.736;2022-09-20T13:38:04;16.60;99.40
30648;DHT22;17683;53.360;9.736;2022-09-20T13:45:59;17.00;96.80
30648;DHT22;17683;53.360;9.736;2022-09-20T13:48:26;16.90;97.20
30648;DHT22;17683;53.360;9.736;2022-09-20T13:50:52;16.60;98.20
30648;DHT22;17683;53.360;9.736;2022-09-20T13:53:22;16.40;98.60
30648;DHT22;17683;53.360;9.736;2022-09-20T13:55:48;16.10;99.00
30648;DHT22;17683;53.360;9.736;2022-09-20T14:01:01;15.80;99.90
30648;DHT22;17683;53.360;9.736;2022-09-20T14:03:28;15.80;99.90
30648;DHT22;17683;53.360;9.736;2022-09-20T14:06:03;15.80;99.90
30648;DHT22;17683;53.360;9.736;2022-09-20T14:08:36;15.80;99.90
30648;DHT22;17683;53.360;9.736;2022-09-20T14:11:27;15.70;99.90
30648;DHT22;17683;53.360;9.736;2022-09-20T14:13:56;15.60;99.90
30648;DHT22;17683;53.360;9.736;2022-09-20T14:16:32;15.60;99.90
30648;DHT22;17683;53.360;9.736;2022-09-20T14:18:59;15.70;99.90
30648;DHT22;17683;53.360;9.736;2022-09-20T14:21:27;15.70;99.90
30648;DHT22;17683;53.360;9.736;2022-09-20T14:24:06;15.80;99.90
30648;DHT22;17683;53.360;9.736;2022-09-20T14:26:33;15.80;99.80
30648;DHT22;17683;53.360;9.736;2022-09-20T14:35:16;15.90;98.60
30648;DHT22;17683;53.360;9.736;2022-09-20T14:38:26;15.90;99.90
30648;DHT22;17683;53.360;9.736;2022-09-20T14:43:30;15.80;98.60
30648;DHT22;17683;53.360;9.736;2022-09-20T14:46:04;15.70;99.30
30648;DHT22;17683;53.360;9.736;2022-09-20T14:48:35;15.70;99.10
30648;DHT22;17683;53.360;9.736;2022-09-20T14:53:45;15.50;99.90
30648;DHT22;17683;53.360;9.736;2022-09-20T14:56:14;15.40;99.90
30648;DHT22;17683;53.360;9.736;2022-09-20T14:59:03;15.30;99.90
30648;DHT22;17683;53.360;9.736;2022-09-20T15:01:30;15.30;99.80
30648;DHT22;17683;53.360;9.736;2022-09-20T15:03:56;15.30;99.90
30648;DHT22;17683;53.360;9.736;2022-09-20T15:06:23;15.30;99.90
30648;DHT22;17683;53.360;9.736;2022-09-20T15:08:49;15.30;99.90
30648;DHT22;17683;53.360;9.736;2022-09-20T15:11:18;15.30;99.90
30648;DHT22;17683;53.360;9.736;2022-09-20T15:13:44;15.30;99.90
30648;DHT22;17683;53.360;9.736;2022-09-20T15:16:15;15.40;99.90
30648;DHT22;17683;53.360;9.736;2022-09-20T15:18:42;15.40;99.00
30648;DHT22;17683;53.360;9.736;2022-09-20T15:21:08;15.40;99.90
30648;DHT22;17683;53.360;9.736;2022-09-20T15:23:38;15.30;99.90
30648;DHT22;17683;53.360;9.736;2022-09-20T15:26:05;15.30;99.90
30648;DHT22;17683;53.360;9.736;2022-09-20T15:28:32;15.30;99.90
30648;DHT22;17683;53.360;9.736;2022-09-20T15:30:58;15.20;99.90
30648;DHT22;17683;53.360;9.736;2022-09-20T15:33:24;15.10;99.90
30648;DHT22;17683;53.360;9.736;2022-09-20T15:35:53;15.10;99.90
30648;DHT22;17683;53.360;9.736;2022-09-20T15:38:18;15.00;99.90
30648;DHT22;17683;53.360;9.736;2022-09-20T15:40:47;14.80;99.90
30648;DHT22;17683;53.360;9.736;2022-09-20T15:43:15;14.70;99.90
30648;DHT22;17683;53.360;9.736;2022-09-20T15:45:51;14.60;99.90
30648;DHT22;17683;53.360;9.736;2022-09-20T15:48:22;14.50;99.90
30648;DHT22;17683;53.360;9.736;2022-09-20T15:51:00;14.40;99.90
30648;DHT22;17683;53.360;9.736;2022-09-20T15:53:37;14.30;99.90
30648;DHT22;17683;53.360;9.736;2022-09-20T15:56:12;14.20;99.90
30648;DHT22;17683;53.360;9.736;2022-09-20T15:58:46;14.10;99.90
30648;DHT22;17683;53.360;9.736;2022-09-20T16:01:13;14.10;99.90
30648;DHT22;17683;53.360;9.736;2022-09-20T16:03:41;14.10;99.90
30648;DHT22;17683;53.360;9.736;2022-09-20T16:06:07;14.00;99.90
30648;DHT22;17683;53.360;9.736;2022-09-20T16:08:35;14.00;99.90
30648;DHT22;17683;53.360;9.736;2022-09-20T16:11:02;13.90;99.90
30648;DHT22;17683;53.360;9.736;2022-09-20T16:13:29;13.80;99.90
30648;DHT22;17683;53.360;9.736;2022-09-20T16:15:59;13.70;99.90
30648;DHT22;17683;53.360;9.736;2022-09-20T16:18:26;13.70;99.90
30648;DHT22;17683;53.360;9.736;2022-09-20T16:21:12;13.60;99.90
30648;DHT22;17683;53.360;9.736;2022-09-20T16:23:39;13.60;99.90
30648;DHT22;17683;53.360;9.736;2022-09-20T16:26:07;13.40;99.90
30648;DHT22;17683;53.360;9.736;2022-09-20T16:28:42;13.20;99.90
30648;DHT22;17683;53.360;9.736;2022-09-20T16:33:53;12.90;99.90
30648;DHT22;17683;53.360;9.736;2022-09-20T16:36:18;12.80;99.90
30648;DHT22;17683;53.360;9.736;2022-09-20T16:38:45;12.80;99.90
30648;DHT22;17683;53.360;9.736;2022-09-20T16:41:10;12.60;99.90
30648;DHT22;17683;53.360;9.736;2022-09-20T16:43:36;12.60;99.90
30648;DHT22;17683;53.360;9.736;2022-09-20T16:46:03;12.50;99.90
30648;DHT22;17683;53.360;9.736;2022-09-20T16:48:31;12.50;99.90
30648;DHT22;17683;53.360;9.736;2022-09-20T16:50:57;12.40;99.90
30648;DHT22;17683;53.360;9.736;2022-09-20T16:53:27;12.40;99.90
30648;DHT22;17683;53.360;9.736;2022-09-20T16:55:53;12.30;99.90
30648;DHT22;17683;53.360;9.736;2022-09-20T16:58:27;12.30;99.90
30648;DHT22;17683;53.360;9.736;2022-09-20T17:01:07;12.20;99.90
30648;DHT22;17683;53.360;9.736;2022-09-20T17:03:33;12.10;99.90
30648;DHT22;17683;53.360;9.736;2022-09-20T17:06:06;12.00;99.90
30648;DHT22;17683;53.360;9.736;2022-09-20T17:08:33;11.90;99.90
30648;DHT22;17683;53.360;9.736;2022-09-20T17:11:26;11.90;99.90
30648;DHT22;17683;53.360;9.736;2022-09-20T17:13:53;11.90;99.90
30648;DHT22;17683;53.360;9.736;2022-09-20T17:16:23;11.90;99.90
30648;DHT22;17683;53.360;9.736;2022-09-20T17:18:54;11.80;99.90
30648;DHT22;17683;53.360;9.736;2022-09-20T17:21:21;11.80;99.90
30648;DHT22;17683;53.360;9.736;2022-09-20T17:23:49;11.80;99.90
30648;DHT22;17683;53.360;9.736;2022-09-20T17:26:21;11.80;99.90
30648;DHT22;17683;53.360;9.736;2022-09-20T17:28:49;11.70;99.90
30648;DHT22;17683;53.360;9.736;2022-09-20T17:31:23;11.70;99.90
30648;DHT22;17683;53.360;9.736;2022-09-20T17:33:50;11.70;99.90
30648;DHT22;17683;53.360;9.736;2022-09-20T17:36:18;11.60;99.90
30648;DHT22;17683;53.360;9.736;2022-09-20T17:38:45;11.60;99.90
30648;DHT22;17683;53.360;9.736;2022-09-20T17:41:13;11.50;99.90
30648;DHT22;17683;53.360;9.736;2022-09-20T17:43:41;11.50;99.90
30648;DHT22;17683;53.360;9.736;2022-09-20T17:46:17;11.40;99.90
30648;DHT22;17683;53.360;9.736;2022-09-20T17:48:49;11.40;99.90
30648;DHT22;17683;53.360;9.736;2022-09-20T17:51:17;11.30;99.90
30648;DHT22;17683;53.360;9.736;2022-09-20T17:53:43;11.20;99.90
30648;DHT22;17683;53.360;9.736;2022-09-20T17:56:10;11.10;99.90
30648;DHT22;17683;53.360;9.736;2022-09-20T17:58:37;11.10;99.90
30648;DHT22;17683;53.360;9.736;2022-09-20T18:01:14;11.10;99.90
30648;DHT22;17683;53.360;9.736;2022-09-20T18:03:45;11.00;99.90
30648;DHT22;17683;53.360;9.736;2022-09-20T18:06:12;11.00;99.90
30648;DHT22;17683;53.360;9.736;2022-09-20T18:08:39;11.00;99.90
30648;DHT22;17683;53.360;9.736;2022-09-20T18:11:05;10.90;99.90
30648;DHT22;17683;53.360;9.736;2022-09-20T18:13:31;10.90;99.90
30648;DHT22;17683;53.360;9.736;2022-09-20T18:15:57;10.80;99.90
30648;DHT22;17683;53.360;9.736;2022-09-20T18:18:23;10.80;99.90
30648;DHT22;17683;53.360;9.736;2022-09-20T18:20:49;10.70;99.90
30648;DHT22;17683;53.360;9.736;2022-09-20T18:23:14;10.70;99.90
30648;DHT22;17683;53.360;9.736;2022-09-20T18:25:40;10.60;99.90
30648;DHT22;17683;53.360;9.736;2022-09-20T18:28:24;10.60;99.90
30648;DHT22;17683;53.360;9.736;2022-09-20T18:31:00;10.50;99.90
30648;DHT22;17683;53.360;9.736;2022-09-20T18:33:27;10.50;99.90
30648;DHT22;17683;53.360;9.736;2022-09-20T18:35:59;10.50;99.90
30648;DHT22;17683;53.360;9.736;2022-09-20T18:38:25;10.40;99.90
30648;DHT22;17683;53.360;9.736;2022-09-20T18:40:55;10.30;99.90
30648;DHT22;17683;53.360;9.736;2022-09-20T18:43:21;10.20;99.90
30648;DHT22;17683;53.360;9.736;2022-09-20T18:45:50;10.20;99.90
30648;DHT22;17683;53.360;9.736;2022-09-20T18:48:20;10.20;99.90
30648;DHT22;17683;53.360;9.736;2022-09-20T18:50:57;10.20;99.90
30648;DHT22;17683;53.360;9.736;2022-09-20T18:53:28;10.10;99.90
30648;DHT22;17683;53.360;9.736;2022-09-20T18:55:55;10.00;99.90
30648;DHT22;17683;53.360;9.736;2022-09-20T18:58:23;10.00;99.90
30648;DHT22;17683;53.360;9.736;2022-09-20T19:01:02;9.90;99.90
30648;DHT22;17683;53.360;9.736;2022-09-20T19:06:53;9.90;99.90
30648;DHT22;17683;53.360;9.736;2022-09-20T19:26:17;9.60;99.90
30648;DHT22;17683;53.360;9.736;2022-09-20T19:28:43;9.60;99.90
30648;DHT22;17683;53.360;9.736;2022-09-20T19:31:32;9.50;99.90
30648;DHT22;17683;53.360;9.736;2022-09-20T19:34:02;9.50;99.90
30648;DHT22;17683;53.360;9.736;2022-09-20T19:36:47;9.50;99.90
30648;DHT22;17683;53.360;9.736;2022-09-20T19:45:05;9.40;99.90
30648;DHT22;17683;53.360;9.736;2022-09-20T19:52:53;9.20;99.90
30648;DHT22;17683;53.360;9.736;2022-09-20T19:55:21;9.20;99.90
30648;DHT22;17683;53.360;9.736;2022-09-20T19:57:47;9.20;99.90
30648;DHT22;17683;53.360;9.736;2022-09-20T20:00:15;9.20;99.90
30648;DHT22;17683;53.360;9.736;2022-09-20T20:02:45;9.10;99.90
30648;DHT22;17683;53.360;9.736;2022-09-20T20:05:12;9.10;99.90
30648;DHT22;17683;53.360;9.736;2022-09-20T20:07:49;9.10;99.90
30648;DHT22;17683;53.360;9.736;2022-09-20T20:13:22;8.90;99.90
30648;DHT22;17683;53.360;9.736;2022-09-20T20:16:14;8.80;99.90
30648;DHT22;17683;53.360;9.736;2022-09-20T20:21:32;8.80;99.90
30648;DHT22;17683;53.360;9.736;2022-09-20T20:24:06;8.70;99.90
30648;DHT22;17683;53.360;9.736;2022-09-20T20:26:35;8.70;99.90
30648;DHT22;17683;53.360;9.736;2022-09-20T20:29:01;8.70;99.90
30648;DHT22;17683;53.360;9.736;2022-09-20T20:31:26;8.70;99.90
30648;DHT22;17683;53.360;9.736;2022-09-20T20:33:53;8.70;99.90
30648;DHT22;17683;53.360;9.736;2022-09-20T20:36:19;8.60;99.90
30648;DHT22;17683;53.360;9.736;2022-09-20T20:38:45;8.70;99.90
30648;DHT22;17683;53.360;9.736;2022-09-20T20:41:17;8.60;99.90
30648;DHT22;17683;53.360;9.736;2022-09-20T20:43:44;8.60;99.90
30648;DHT22;17683;53.360;9.736;2022-09-20T20:46:14;8.50;99.90
30648;DHT22;17683;53.360;9.736;2022-09-20T20:48:40;8.60;99.90
30648;DHT22;17683;53.360;9.736;2022-09-20T20:51:11;8.50;99.90
30648;DHT22;17683;53.360;9.736;2022-09-20T20:53:39;8.50;99.90
30648;DHT22;17683;53.360;9.736;2022-09-20T20:56:10;8.40;99.90
30648;DHT22;17683;53.360;9.736;2022-09-20T20:58:38;8.40;99.90
30648;DHT22;17683;53.360;9.736;2022-09-20T21:01:10;8.40;99.90
30648;DHT22;17683;53.360;9.736;2022-09-20T21:03:36;8.40;99.90
30648;DHT22;17683;53.360;9.736;2022-09-20T21:06:02;8.30;99.90
30648;DHT22;17683;53.360;9.736;2022-09-20T21:08:33;8.30;99.90
30648;DHT22;17683;53.360;9.736;2022-09-20T21:11:06;8.20;99.90
30648;DHT22;17683;53.360;9.736;2022-09-20T21:13:32;8.30;99.90
30648;DHT22;17683;53.360;9.736;2022-09-20T21:16:02;8.20;99.90
30648;DHT22;17683;53.360;9.736;2022-09-20T21:18:28;8.20;99.90
30648;DHT22;17683;53.360;9.736;2022-09-20T21:20:54;8.20;99.90
30648;DHT22;17683;53.360;9.736;2022-09-20T21:23:19;8.20;99.90
30648;DHT22;17683;53.360;9.736;2022-09-20T21:25:45;8.10;99.90
30648;DHT22;17683;53.360;9.736;2022-09-20T21:28:11;8.00;99.90
30648;DHT22;17683;53.360;9.736;2022-09-20T21:30:36;8.00;99.90
30648;DHT22;17683;53.360;9.736;2022-09-20T21:33:02;7.90;99.90
30648;DHT22;17683;53.360;9.736;2022-09-20T21:35:28;7.90;99.90
30648;DHT22;17683;53.360;9.736;2022-09-20T21:37:53;7.90;99.90
30648;DHT22;17683;53.360;9.736;2022-09-20T21:40:19;7.90;99.90
30648;DHT22;17683;53.360;9.736;2022-09-20T21:42:45;7.90;99.90
30648;DHT22;17683;53.360;9.736;2022-09-20T21:45:10;7.90;99.90
30648;DHT22;17683;53.360;9.736;2022-09-20T21:47:36;7.90;99.90
30648;DHT22;17683;53.360;9.736;2022-09-20T21:50:02;7.80;99.90
30648;DHT22;17683;53.360;9.736;2022-09-20T21:52:28;7.80;99.90